Time;durP1;ratioP1;P1;durP2;ratioP2;P2;SDS_P1;SDS_P2;PMS_P1;PMS_P2;Temp;Humidity;BMP_temperature;BMP_pressure;BME280_temperature;BME280_humidity;BME280_pressure;Samples;Min_cycle;Max_cycle;Signal;HPM_P1;HPM_P2
2022/08/30 00:01:04;;;;;;;1.77;1.20;;;13.10;99.90;;;;;;5036376;28;20041;-79
2022/08/30 00:03:44;;;;;;;2.22;1.30;;;13.20;99.90;;;;;;5035916;28;20134;-79
2022/08/30 00:06:11;;;;;;;1.73;1.00;;;13.20;99.90;;;;;;5032516;28;20484;-79
2022/08/30 00:08:37;;;;;;;1.58;1.00;;;13.20;99.90;;;;;;5036239;28;20048;-79
2022/08/30 00:11:05;;;;;;;3.38;1.50;;;13.20;99.90;;;;;;5036353;28;20085;-79
2022/08/30 00:13:31;;;;;;;2.38;1.38;;;13.30;99.90;;;;;;5035480;28;20041;-79
2022/08/30 00:15:57;;;;;;;3.42;1.30;;;13.30;99.90;;;;;;5018552;28;20045;-79
2022/08/30 00:18:23;;;;;;;2.03;1.25;;;13.30;99.90;;;;;;5003733;28;20051;-79
2022/08/30 00:20:50;;;;;;;2.55;1.52;;;13.40;99.90;;;;;;5036155;28;20399;-79
2022/08/30 00:23:18;;;;;;;1.15;1.05;;;13.40;99.90;;;;;;5035970;28;20071;-79
2022/08/30 00:25:44;;;;;;;3.00;1.70;;;13.40;99.90;;;;;;5035716;28;20395;-79
2022/08/30 00:28:11;;;;;;;2.05;1.05;;;13.40;99.90;;;;;;5019569;28;20032;-79
2022/08/30 00:30:38;;;;;;;3.33;1.15;;;13.50;99.90;;;;;;5019353;28;20091;-79
2022/08/30 00:33:04;;;;;;;1.88;1.17;;;13.50;99.90;;;;;;5000786;28;20040;-79
2022/08/30 00:35:30;;;;;;;1.88;1.23;;;13.60;99.90;;;;;;5036008;28;20064;-79
2022/08/30 00:37:56;;;;;;;2.55;1.10;;;13.60;99.90;;;;;;5018954;28;20462;-79
2022/08/30 00:40:22;;;;;;;1.90;1.13;;;13.70;99.90;;;;;;5019846;28;20044;-79
2022/08/30 00:42:48;;;;;;;2.78;1.30;;;13.70;99.90;;;;;;5018820;28;20053;-79
2022/08/30 00:45:18;;;;;;;2.30;1.38;;;13.70;99.90;;;;;;5019535;28;20099;-79
2022/08/30 00:47:44;;;;;;;2.90;1.45;;;13.70;99.90;;;;;;5035168;28;20072;-79
2022/08/30 00:50:12;;;;;;;1.80;1.15;;;13.80;99.90;;;;;;5035452;28;20040;-79
2022/08/30 00:52:41;;;;;;;1.85;1.13;;;13.80;99.90;;;;;;5034277;28;20037;-79
2022/08/30 00:55:07;;;;;;;1.23;0.88;;;13.70;99.90;;;;;;5034795;28;20037;-79
2022/08/30 00:57:34;;;;;;;1.88;1.15;;;13.70;99.90;;;;;;5034614;28;20064;-79
2022/08/30 01:00:03;;;;;;;2.40;1.30;;;13.70;99.90;;;;;;5030951;28;20044;-79
2022/08/30 01:02:30;;;;;;;2.33;1.15;;;13.70;99.90;;;;;;5031157;28;20502;-80
2022/08/30 01:04:56;;;;;;;3.05;1.70;;;13.70;99.90;;;;;;5018869;28;20037;-81
2022/08/30 01:07:23;;;;;;;1.90;1.30;;;13.70;99.90;;;;;;5018516;28;20057;-80
2022/08/30 01:09:49;;;;;;;1.95;1.40;;;13.70;99.90;;;;;;5035798;28;20041;-80
2022/08/30 01:12:15;;;;;;;2.10;1.45;;;13.70;99.90;;;;;;5035101;28;20510;-80
2022/08/30 01:14:41;;;;;;;3.88;2.00;;;13.70;99.90;;;;;;5034102;28;20045;-80
2022/08/30 01:17:08;;;;;;;2.75;1.45;;;13.70;99.90;;;;;;5018677;28;20048;-79
2022/08/30 01:19:50;;;;;;;2.15;1.20;;;13.70;99.90;;;;;;5019230;28;20163;-79
2022/08/30 01:22:31;;;;;;;2.20;1.30;;;13.70;99.90;;;;;;5030177;28;20044;-79
2022/08/30 01:24:58;;;;;;;2.22;1.20;;;13.70;99.90;;;;;;5034328;28;20552;-79
2022/08/30 01:27:26;;;;;;;1.50;1.00;;;13.80;99.90;;;;;;5034794;28;20521;-79
2022/08/30 01:29:53;;;;;;;3.03;1.67;;;13.80;99.90;;;;;;5034755;28;20037;-79
2022/08/30 01:32:22;;;;;;;1.98;1.27;;;13.80;99.90;;;;;;5035234;28;20041;-79
2022/08/30 01:34:48;;;;;;;2.25;1.40;;;13.80;99.90;;;;;;5033842;28;20179;-81
2022/08/30 01:37:16;;;;;;;2.33;1.45;;;13.80;99.90;;;;;;5017151;28;20518;-81
2022/08/30 01:39:45;;;;;;;2.55;1.52;;;13.80;99.90;;;;;;5034665;28;20450;-81
2022/08/30 01:42:12;;;;;;;1.85;1.17;;;13.80;99.90;;;;;;5034173;28;20040;-81
2022/08/30 01:44:38;;;;;;;2.30;1.30;;;13.80;99.90;;;;;;5031982;28;20438;-81
2022/08/30 01:47:04;;;;;;;2.63;1.80;;;13.80;99.90;;;;;;5034468;28;20045;-81
2022/08/30 01:49:30;;;;;;;2.45;1.35;;;13.80;99.90;;;;;;5038766;28;20044;-81
2022/08/30 01:51:56;;;;;;;2.67;1.48;;;13.80;99.90;;;;;;5039278;28;20052;-81
2022/08/30 01:54:22;;;;;;;2.33;1.25;;;13.80;99.90;;;;;;5006188;28;20518;-81
2022/08/30 01:56:48;;;;;;;2.45;1.40;;;13.80;99.90;;;;;;5021468;28;20048;-81
2022/08/30 01:59:14;;;;;;;3.03;1.52;;;13.80;99.90;;;;;;5036752;28;20095;-81
2022/08/30 02:01:41;;;;;;;2.33;1.45;;;13.80;99.90;;;;;;5038757;28;20124;-81
2022/08/30 02:04:08;;;;;;;2.38;1.23;;;13.80;99.90;;;;;;5022476;28;20406;-81
2022/08/30 02:06:34;;;;;;;3.50;1.33;;;13.80;99.90;;;;;;5036916;28;20059;-81
2022/08/30 02:09:00;;;;;;;2.15;1.20;;;13.80;99.90;;;;;;5022033;28;20045;-79
2022/08/30 02:11:26;;;;;;;2.28;1.42;;;13.80;99.90;;;;;;5038772;28;20059;-79
2022/08/30 02:13:52;;;;;;;4.47;1.90;;;13.80;99.90;;;;;;5002627;28;20511;-79
2022/08/30 02:16:21;;;;;;;4.97;2.33;;;13.70;99.90;;;;;;5037733;28;20140;-81
2022/08/30 02:18:47;;;;;;;2.75;1.48;;;13.70;99.90;;;;;;5038259;28;20523;-81
2022/08/30 02:21:14;;;;;;;2.10;1.42;;;13.70;99.90;;;;;;5047203;23;20147;-79
2022/08/30 02:23:40;;;;;;;1.63;1.15;;;13.70;99.90;;;;;;5041767;28;20100;-79
2022/08/30 02:26:07;;;;;;;2.22;1.38;;;13.60;99.90;;;;;;5041710;28;20043;-79
2022/08/30 02:28:33;;;;;;;2.63;1.30;;;13.60;99.90;;;;;;5057380;28;20036;-79
2022/08/30 02:30:59;;;;;;;2.03;1.10;;;13.50;99.90;;;;;;5041393;28;20044;-79
2022/08/30 02:33:25;;;;;;;2.65;1.08;;;13.40;99.90;;;;;;5058000;28;20052;-79
2022/08/30 02:35:51;;;;;;;2.15;1.33;;;13.30;99.90;;;;;;5057717;28;20367;-79
2022/08/30 02:38:17;;;;;;;1.95;1.20;;;13.30;99.90;;;;;;5057595;28;20052;-79
2022/08/30 02:40:43;;;;;;;4.57;1.80;;;13.20;99.90;;;;;;5058070;28;20443;-80
2022/08/30 02:43:09;;;;;;;2.58;1.70;;;13.20;99.90;;;;;;5057084;28;20036;-80
2022/08/30 02:45:35;;;;;;;2.55;1.35;;;13.20;99.90;;;;;;5041466;28;20367;-80
2022/08/30 02:48:02;;;;;;;2.38;1.30;;;13.10;99.90;;;;;;5040263;28;20048;-80
2022/08/30 02:50:27;;;;;;;2.13;1.10;;;13.10;99.90;;;;;;5057044;28;20051;-80
2022/08/30 02:52:53;;;;;;;2.50;1.23;;;13.00;99.90;;;;;;5040182;28;20390;-80
2022/08/30 02:55:19;;;;;;;6.85;1.85;;;13.00;99.90;;;;;;5055376;28;20111;-80
2022/08/30 02:57:46;;;;;;;2.00;1.27;;;12.90;99.90;;;;;;5054182;28;20041;-81
2022/08/30 03:00:15;;;;;;;1.40;1.00;;;12.80;99.90;;;;;;5034892;28;20036;-81
2022/08/30 03:02:41;;;;;;;1.92;1.17;;;12.80;99.90;;;;;;5057278;28;20050;-81
2022/08/30 03:05:11;;;;;;;1.88;1.30;;;12.70;99.90;;;;;;5057629;28;20094;-81
2022/08/30 03:07:38;;;;;;;2.30;1.10;;;12.70;99.90;;;;;;5056795;28;20052;-81
2022/08/30 03:10:04;;;;;;;3.50;1.30;;;12.60;99.90;;;;;;5073005;28;20124;-81
2022/08/30 03:12:31;;;;;;;2.15;1.25;;;12.50;99.90;;;;;;5040242;28;20048;-81
2022/08/30 03:14:57;;;;;;;2.25;1.30;;;12.40;99.90;;;;;;5057530;28;20094;-79
2022/08/30 03:17:23;;;;;;;1.20;1.00;;;12.40;99.90;;;;;;5057393;28;20036;-79
2022/08/30 03:19:49;;;;;;;1.67;1.10;;;12.20;99.90;;;;;;5038420;28;20501;-79
2022/08/30 03:22:15;;;;;;;1.77;1.08;;;12.20;99.90;;;;;;5056450;28;20082;-79
2022/08/30 03:24:40;;;;;;;1.48;1.02;;;12.20;99.90;;;;;;5040561;28;20067;-79
2022/08/30 03:27:06;;;;;;;1.15;0.82;;;12.20;99.90;;;;;;5057005;28;20036;-79
2022/08/30 03:29:33;;;;;;;0.55;0.55;;;12.10;99.90;;;;;;5037081;28;20111;-79
2022/08/30 03:31:59;;;;;;;1.40;0.82;;;12.00;99.90;;;;;;5036256;28;20041;-79
2022/08/30 03:34:25;;;;;;;1.65;1.05;;;12.00;99.90;;;;;;5056939;28;20097;-79
2022/08/30 03:36:53;;;;;;;1.52;0.98;;;12.00;99.90;;;;;;5040137;28;20036;-79
2022/08/30 03:39:20;;;;;;;1.85;0.85;;;11.90;99.90;;;;;;5039795;28;20044;-79
2022/08/30 03:41:45;;;;;;;1.60;1.10;;;11.90;99.90;;;;;;5040182;28;20049;-79
2022/08/30 03:44:11;;;;;;;1.60;0.63;;;11.80;99.90;;;;;;5056206;28;20051;-79
2022/08/30 03:46:37;;;;;;;2.13;1.15;;;11.70;99.90;;;;;;5040141;28;20047;-79
2022/08/30 03:49:06;;;;;;;0.50;0.50;;;11.70;99.90;;;;;;5039925;28;20059;-80
2022/08/30 03:51:32;;;;;;;1.73;0.82;;;11.70;99.90;;;;;;5056159;28;20498;-80
2022/08/30 03:53:59;;;;;;;1.58;1.13;;;11.70;99.90;;;;;;5056505;28;20115;-80
2022/08/30 03:56:25;;;;;;;1.85;1.30;;;11.60;99.90;;;;;;5040626;28;20379;-80
2022/08/30 03:58:51;;;;;;;1.65;0.82;;;11.60;99.90;;;;;;5056545;28;20409;-80
2022/08/30 04:01:17;;;;;;;1.20;0.70;;;11.60;99.90;;;;;;5056277;28;20044;-80
2022/08/30 04:03:42;;;;;;;1.77;1.02;;;11.50;99.90;;;;;;5022688;28;20041;-80
2022/08/30 04:06:08;;;;;;;2.03;1.00;;;11.50;99.90;;;;;;5042865;28;20044;-81
2022/08/30 04:08:34;;;;;;;1.50;1.05;;;11.50;99.90;;;;;;5056147;28;20045;-81
2022/08/30 04:11:01;;;;;;;2.25;1.20;;;11.50;99.90;;;;;;5038817;28;20040;-81
2022/08/30 04:13:28;;;;;;;1.10;1.00;;;11.60;99.90;;;;;;5056015;28;20036;-81
2022/08/30 04:15:54;;;;;;;2.22;1.20;;;11.50;99.90;;;;;;5055934;28;20490;-81
2022/08/30 04:18:20;;;;;;;1.25;1.13;;;11.50;99.90;;;;;;5039450;28;20083;-81
2022/08/30 04:20:46;;;;;;;2.05;1.08;;;11.50;99.90;;;;;;5039521;28;20045;-79
2022/08/30 04:23:13;;;;;;;1.63;1.15;;;11.50;99.90;;;;;;5039292;28;20060;-79
2022/08/30 04:25:40;;;;;;;1.95;1.23;;;11.60;99.90;;;;;;5055081;28;20101;-79
2022/08/30 04:28:07;;;;;;;2.13;1.30;;;11.50;99.90;;;;;;5052512;28;20080;-79
2022/08/30 04:30:33;;;;;;;1.92;1.30;;;11.50;99.90;;;;;;5039256;28;20075;-79
2022/08/30 04:32:59;;;;;;;1.85;1.20;;;11.40;99.90;;;;;;5054900;28;20491;-79
2022/08/30 04:35:25;;;;;;;2.03;1.27;;;11.50;99.90;;;;;;5038772;28;20112;-79
2022/08/30 04:37:52;;;;;;;2.10;1.40;;;11.40;99.90;;;;;;5055502;28;20044;-79
2022/08/30 04:40:19;;;;;;;0.90;0.73;;;11.40;99.90;;;;;;5055236;28;20067;-79
2022/08/30 04:42:44;;;;;;;1.90;1.17;;;11.40;99.90;;;;;;5019378;28;20432;-79
2022/08/30 04:45:13;;;;;;;2.42;1.10;;;11.40;99.90;;;;;;5055755;28;20047;-79
2022/08/30 04:47:40;;;;;;;1.88;1.08;;;11.40;99.90;;;;;;5030697;28;20072;-79
2022/08/30 04:50:08;;;;;;;2.80;1.60;;;11.30;99.90;;;;;;5038950;28;20495;-79
2022/08/30 04:52:34;;;;;;;2.30;1.42;;;11.30;99.90;;;;;;5050822;28;20390;-79
2022/08/30 04:54:59;;;;;;;1.88;1.15;;;11.30;99.90;;;;;;5058617;28;20036;-79
2022/08/30 04:57:26;;;;;;;1.90;1.30;;;11.30;99.90;;;;;;5021352;28;20036;-79
2022/08/30 04:59:52;;;;;;;2.13;1.20;;;11.30;99.90;;;;;;5055136;28;20045;-79
2022/08/30 05:02:18;;;;;;;2.10;0.98;;;11.30;99.90;;;;;;5055059;28;20049;-79
2022/08/30 05:07:30;;;;;;;3.45;1.48;;;11.40;99.90;;;;;;5054754;28;20048;-79
2022/08/30 05:09:56;;;;;;;5.95;1.90;;;11.40;99.90;;;;;;5055158;28;20120;-79
2022/08/30 05:12:22;;;;;;;2.55;1.67;;;11.40;99.90;;;;;;5022114;28;20398;-79
2022/08/30 05:14:49;;;;;;;2.42;1.40;;;11.50;99.90;;;;;;5055297;28;20054;-79
2022/08/30 05:17:14;;;;;;;2.10;1.30;;;11.50;99.90;;;;;;5054566;28;20433;-79
2022/08/30 05:19:40;;;;;;;3.85;1.40;;;11.50;99.90;;;;;;5054972;28;20044;-79
2022/08/30 05:22:06;;;;;;;2.25;1.33;;;11.50;99.90;;;;;;5054011;28;20056;-79
2022/08/30 05:24:33;;;;;;;2.63;1.63;;;11.50;99.90;;;;;;5052861;28;20093;-79
2022/08/30 05:26:59;;;;;;;2.10;1.10;;;11.60;99.90;;;;;;5032074;28;20447;-80
2022/08/30 05:29:24;;;;;;;2.42;1.13;;;11.90;99.90;;;;;;5035951;28;20111;-81
2022/08/30 05:31:50;;;;;;;2.05;1.40;;;11.60;99.90;;;;;;5054101;28;20140;-80
2022/08/30 05:34:16;;;;;;;2.10;1.48;;;11.70;99.90;;;;;;5054123;28;20039;-80
2022/08/30 05:36:42;;;;;;;1.85;1.42;;;11.70;99.90;;;;;;5054838;28;20067;-80
2022/08/30 05:39:09;;;;;;;3.55;1.60;;;11.80;99.90;;;;;;5038041;28;20044;-80
2022/08/30 05:41:35;;;;;;;2.58;1.30;;;11.80;99.90;;;;;;5054097;28;20051;-80
2022/08/30 05:44:02;;;;;;;2.53;1.38;;;11.90;99.90;;;;;;5053837;28;20040;-80
2022/08/30 05:46:31;;;;;;;2.05;1.20;;;12.00;99.90;;;;;;5055001;28;20508;-79
2022/08/30 05:48:58;;;;;;;4.18;1.60;;;12.00;99.90;;;;;;5054264;28;20568;-79
2022/08/30 05:51:27;;;;;;;3.17;1.67;;;12.10;99.90;;;;;;5054040;28;20128;-79
2022/08/30 05:53:54;;;;;;;3.15;1.60;;;12.20;99.90;;;;;;5055266;28;20051;-79
2022/08/30 05:56:23;;;;;;;6.38;2.03;;;12.30;99.90;;;;;;5054984;28;20114;-79
2022/08/30 05:58:49;;;;;;;3.08;1.90;;;12.40;99.90;;;;;;5037961;28;20052;-79
2022/08/30 06:01:19;;;;;;;3.60;1.70;;;12.50;99.90;;;;;;5049653;28;20075;-81
2022/08/30 06:03:46;;;;;;;4.20;1.80;;;12.60;99.90;;;;;;5054406;28;20041;-82
2022/08/30 06:06:11;;;;;;;5.18;2.08;;;12.70;99.90;;;;;;5037539;28;20040;-81
2022/08/30 06:08:37;;;;;;;3.25;2.05;;;12.80;99.90;;;;;;5054284;28;20140;-81
2022/08/30 06:11:02;;;;;;;2.75;1.70;;;12.90;99.90;;;;;;5053686;28;20036;-81
2022/08/30 06:13:28;;;;;;;5.18;2.53;;;13.00;99.90;;;;;;5054985;28;20102;-81
2022/08/30 06:15:54;;;;;;;4.32;2.03;;;13.10;99.90;;;;;;5037515;28;20043;-81
2022/08/30 06:18:19;;;;;;;3.15;1.70;;;13.30;99.90;;;;;;5054834;28;20044;-81
2022/08/30 06:20:50;;;;;;;2.97;1.80;;;13.50;99.90;;;;;;5052745;28;20037;-81
2022/08/30 06:23:16;;;;;;;2.75;2.05;;;13.70;99.90;;;;;;5053680;28;20044;-81
2022/08/30 06:25:43;;;;;;;3.33;2.30;;;15.20;99.90;;;;;;5054093;28;20049;-81
2022/08/30 06:28:10;;;;;;;5.18;3.03;;;16.80;99.90;;;;;;5037019;28;20037;-81
2022/08/30 06:30:37;;;;;;;4.70;2.55;;;18.40;99.90;;;;;;5033605;28;20036;-81
2022/08/30 06:33:03;;;;;;;3.95;2.63;;;20.00;99.90;;;;;;5053838;28;20415;-81
2022/08/30 06:35:30;;;;;;;4.82;2.90;;;21.40;99.90;;;;;;5058236;28;20047;-81
2022/08/30 06:37:56;;;;;;;3.97;2.13;;;22.30;99.90;;;;;;5057866;28;20194;-81
2022/08/30 06:40:22;;;;;;;3.78;2.20;;;23.70;99.90;;;;;;5041624;28;20135;-81
2022/08/30 06:42:49;;;;;;;3.25;1.70;;;24.70;99.90;;;;;;5055562;28;20047;-81
2022/08/30 06:45:15;;;;;;;4.32;1.98;;;25.40;99.90;;;;;;5038251;28;20045;-82
2022/08/30 06:47:41;;;;;;;5.35;1.48;;;25.80;97.30;;;;;;5051053;28;20040;-82
2022/08/30 06:50:08;;;;;;;5.05;1.88;;;26.20;97.50;;;;;;5038526;28;20036;-80
2022/08/30 06:52:34;;;;;;;2.88;1.85;;;26.10;96.20;;;;;;5041118;28;20036;-80
2022/08/30 06:54:59;;;;;;;2.20;1.50;;;26.80;96.00;;;;;;5057508;28;20561;-79
2022/08/30 06:57:25;;;;;;;3.97;1.75;;;27.20;94.00;;;;;;5058006;28;20032;-79
2022/08/30 06:59:55;;;;;;;2.63;1.50;;;27.10;93.30;;;;;;5056149;28;21736;-79
2022/08/30 07:02:21;;;;;;;3.00;1.77;;;27.80;93.10;;;;;;5054578;28;20032;-79
2022/08/30 07:04:47;;;;;;;3.70;1.30;;;28.00;92.80;;;;;;5035222;28;20393;-79
2022/08/30 07:07:13;;;;;;;3.38;1.40;;;28.10;91.40;;;;;;5056047;28;20166;-80
2022/08/30 07:09:42;;;;;;;4.03;1.77;;;28.10;91.30;;;;;;5055201;28;20093;-80
2022/08/30 07:12:09;;;;;;;6.20;1.52;;;28.50;92.50;;;;;;5055306;28;20379;-80
2022/08/30 07:14:35;;;;;;;1.50;0.80;;;29.20;91.70;;;;;;5054729;28;20087;-80
2022/08/30 07:17:01;;;;;;;2.97;1.25;;;29.60;91.60;;;;;;5057248;28;20108;-80
2022/08/30 07:19:26;;;;;;;2.15;0.95;;;29.40;90.10;;;;;;5040947;28;20135;-80
2022/08/30 07:21:52;;;;;;;5.47;1.40;;;30.20;89.30;;;;;;5040305;28;20048;-80
2022/08/30 07:24:19;;;;;;;2.20;1.15;;;30.10;88.70;;;;;;5022631;28;20089;-80
2022/08/30 07:26:48;;;;;;;1.55;0.80;;;29.70;86.20;;;;;;5031683;28;20068;-80
2022/08/30 07:29:16;;;;;;;2.63;1.05;;;30.10;86.50;;;;;;5053459;28;20037;-79
2022/08/30 07:31:42;;;;;;;2.33;1.08;;;30.20;85.80;;;;;;5055156;28;20041;-80
2022/08/30 07:34:09;;;;;;;2.65;1.35;;;30.30;84.40;;;;;;5039257;28;20521;-80
2022/08/30 07:36:36;;;;;;;3.42;1.20;;;30.50;83.20;;;;;;5023851;28;20044;-80
2022/08/30 07:39:03;;;;;;;1.17;0.88;;;30.30;84.20;;;;;;5040136;28;20067;-80
2022/08/30 07:41:34;;;;;;;2.60;0.93;;;30.70;85.20;;;;;;5021369;28;20047;-80
2022/08/30 07:44:00;;;;;;;6.18;0.70;;;31.00;83.20;;;;;;5051173;28;20075;-81
2022/08/30 07:46:26;;;;;;;3.45;1.05;;;31.10;82.00;;;;;;5018516;28;20526;-81
2022/08/30 07:48:54;;;;;;;3.20;1.05;;;30.90;78.70;;;;;;5048353;28;20037;-80
2022/08/30 07:51:23;;;;;;;1.40;0.80;;;31.10;78.30;;;;;;5056292;28;20045;-81
2022/08/30 07:53:49;;;;;;;1.33;0.85;;;31.00;80.30;;;;;;5053844;28;20047;-81
2022/08/30 07:56:15;;;;;;;1.17;0.73;;;30.00;80.50;;;;;;5037965;28;20040;-81
2022/08/30 07:58:41;;;;;;;2.30;1.08;;;30.50;82.20;;;;;;5021649;28;20170;-83
2022/08/30 08:01:09;;;;;;;2.28;1.00;;;30.10;80.20;;;;;;5055874;28;20570;-84
2022/08/30 08:03:38;;;;;;;1.88;1.00;;;30.60;80.00;;;;;;5056412;28;20172;-84
2022/08/30 08:06:05;;;;;;;1.08;0.60;;;30.80;79.10;;;;;;5056447;28;20398;-84
2022/08/30 08:08:32;;;;;;;2.25;1.20;;;30.90;78.10;;;;;;5054245;28;20097;-84
2022/08/30 08:11:04;;;;;;;3.75;1.30;;;31.20;77.90;;;;;;5055434;28;20111;-83
2022/08/30 08:13:30;;;;;;;1.30;0.80;;;31.20;77.60;;;;;;5056061;28;20371;-83
2022/08/30 08:15:56;;;;;;;1.02;0.75;;;32.10;78.00;;;;;;5056638;28;20045;-83
2022/08/30 08:18:21;;;;;;;2.72;0.95;;;31.90;75.40;;;;;;5055337;28;20406;-82
2022/08/30 08:20:47;;;;;;;1.20;0.70;;;31.60;74.50;;;;;;5056484;28;20047;-82
2022/08/30 08:23:14;;;;;;;1.27;0.93;;;31.70;76.40;;;;;;5038506;28;20060;-82
2022/08/30 08:25:40;;;;;;;1.25;0.63;;;32.20;74.80;;;;;;5056108;28;20434;-82
2022/08/30 08:28:06;;;;;;;2.65;1.00;;;32.20;73.60;;;;;;5038541;28;20039;-82
2022/08/30 08:30:35;;;;;;;1.17;0.75;;;31.70;75.70;;;;;;5055554;28;20124;-82
2022/08/30 08:33:02;;;;;;;1.20;0.80;;;32.50;74.20;;;;;;5035456;28;20379;-82
2022/08/30 08:35:28;;;;;;;1.38;1.00;;;32.60;71.60;;;;;;5053109;28;20052;-82
2022/08/30 08:37:53;;;;;;;1.48;0.73;;;33.10;72.70;;;;;;5037309;28;20052;-83
2022/08/30 08:40:19;;;;;;;1.52;0.95;;;32.80;71.20;;;;;;5052559;28;20059;-82
2022/08/30 08:42:48;;;;;;;1.38;1.00;;;33.00;72.60;;;;;;5056129;28;20048;-83
2022/08/30 08:45:19;;;;;;;1.75;0.80;;;33.10;71.20;;;;;;5038760;28;20076;-84
2022/08/30 08:48:03;;;;;;;1.95;1.08;;;33.50;72.90;;;;;;5050978;28;20040;-83
2022/08/30 08:50:29;;;;;;;2.35;0.85;;;33.60;68.60;;;;;;5053388;28;20139;-82
2022/08/30 08:55:49;;;;;;;1.85;0.93;;;31.70;71.30;;;;;;5050903;28;20044;-82
2022/08/30 08:58:30;;;;;;;1.45;1.00;;;31.70;72.50;;;;;;5036020;28;20382;-83
2022/08/30 09:00:57;;;;;;;1.15;0.73;;;32.20;72.60;;;;;;5042468;28;20037;-84
2022/08/30 09:03:27;;;;;;;1.83;1.10;;;32.40;70.10;;;;;;5051240;28;20078;-84
2022/08/30 09:05:54;;;;;;;0.70;0.57;;;30.80;71.90;;;;;;5053028;28;20048;-84
2022/08/30 09:08:22;;;;;;;1.42;0.95;;;;;;;;;;5054376;28;20359;-84
2022/08/30 09:11:05;;;;;;;1.95;0.77;;;29.90;72.40;;;;;;5051521;28;20537;-86
2022/08/30 09:13:32;;;;;;;1.77;0.95;;;30.70;72.50;;;;;;5030486;28;20036;-85
2022/08/30 09:15:58;;;;;;;3.13;1.23;;;31.10;72.30;;;;;;5050979;28;20064;-85
2022/08/30 09:18:45;;;;;;;1.83;0.80;;;30.80;71.80;;;;;;5034309;28;20457;-85
2022/08/30 09:21:12;;;;;;;1.90;1.02;;;31.20;72.60;;;;;;5051749;28;20044;-84
2022/08/30 09:23:48;;;;;;;1.00;0.70;;;31.60;72.70;;;;;;5038661;28;20052;-86
2022/08/30 09:26:26;;;;;;;3.05;1.38;;;31.20;70.80;;;;;;5049061;28;20119;-80
2022/08/30 09:28:53;;;;;;;3.70;0.85;;;30.80;72.20;;;;;;5032207;28;20032;-80
2022/08/30 09:31:23;;;;;;;1.58;0.82;;;30.60;71.40;;;;;;5050996;28;20048;-80
2022/08/30 09:34:00;;;;;;;5.22;1.15;;;30.60;72.20;;;;;;5036393;28;20124;-80
2022/08/30 09:36:28;;;;;;;2.17;0.75;;;31.20;73.60;;;;;;5051239;28;20097;-79
2022/08/30 09:39:14;;;;;;;2.15;1.05;;;31.80;71.60;;;;;;5057933;28;20045;-80
2022/08/30 09:41:43;;;;;;;1.52;0.88;;;32.40;69.90;;;;;;5051833;28;20413;-80
2022/08/30 09:44:19;;;;;;;2.30;0.90;;;32.10;68.90;;;;;;5054856;28;20467;-81
2022/08/30 09:46:52;;;;;;;1.05;0.80;;;30.70;68.80;;;;;;5052595;28;20116;-80
2022/08/30 09:49:38;;;;;;;1.40;0.70;;;30.60;73.00;;;;;;5038029;28;20082;-80
2022/08/30 09:52:11;;;;;;;1.73;0.90;;;31.30;72.20;;;;;;5054432;28;20534;-80
2022/08/30 09:55:08;;;;;;;3.30;0.90;;;32.10;70.30;;;;;;5050239;28;20040;-80
2022/08/30 09:57:54;;;;;;;1.35;0.60;;;32.50;70.30;;;;;;5054960;28;20047;-79
2022/08/30 10:00:24;;;;;;;2.42;1.05;;;32.10;68.90;;;;;;5038150;28;20044;-79
2022/08/30 10:03:11;;;;;;;2.35;1.00;;;31.10;69.00;;;;;;5054511;28;20062;-79
2022/08/30 10:05:59;;;;;;;1.80;0.90;;;30.90;70.10;;;;;;5050938;28;20049;-79
2022/08/30 10:08:44;;;;;;;1.45;1.05;;;31.40;71.30;;;;;;5051459;28;20036;-79
2022/08/30 10:11:15;;;;;;;1.17;0.73;;;32.20;70.20;;;;;;5058072;28;20051;-80
2022/08/30 10:13:56;;;;;;;1.25;0.75;;;32.90;68.30;;;;;;5057900;28;20039;-80
2022/08/30 10:17:00;;;;;;;1.02;0.75;;;33.10;65.90;;;;;;5057652;28;20040;-80
2022/08/30 10:19:50;;;;;;;1.60;0.93;;;32.10;67.20;;;;;;5054891;28;20071;-80
2022/08/30 10:22:20;;;;;;;1.95;0.82;;;31.50;66.90;;;;;;5036713;28;20045;-80
2022/08/30 10:24:52;;;;;;;1.50;0.90;;;31.50;66.50;;;;;;5054483;28;20048;-80
2022/08/30 10:27:39;;;;;;;3.00;1.02;;;30.80;68.50;;;;;;5044237;28;20059;-80
2022/08/30 10:30:10;;;;;;;1.60;0.75;;;30.70;70.40;;;;;;5054283;28;20041;-80
2022/08/30 10:33:02;;;;;;;0.98;0.75;;;31.20;69.00;;;;;;5058211;28;20115;-80
2022/08/30 10:35:35;;;;;;;2.65;0.60;;;32.20;68.40;;;;;;5037939;28;20116;-80
2022/08/30 10:38:10;;;;;;;2.70;0.95;;;32.60;66.50;;;;;;5056696;28;20505;-80
2022/08/30 10:43:54;;;;;;;1.88;0.77;;;32.90;65.60;;;;;;5056478;28;20060;-80
2022/08/30 10:46:28;;;;;;;1.65;0.65;;;33.80;66.50;;;;;;5038524;28;20441;-81
2022/08/30 10:48:55;;;;;;;0.50;0.50;;;34.30;65.10;;;;;;5040747;28;20032;-80
2022/08/30 10:51:24;;;;;;;1.77;1.00;;;34.60;66.10;;;;;;5021817;28;20459;-79
2022/08/30 10:53:55;;;;;;;1.55;0.65;;;34.10;62.50;;;;;;5054065;28;20090;-79
2022/08/30 10:56:25;;;;;;;0.93;0.60;;;33.80;63.90;;;;;;5056742;28;20037;-79
2022/08/30 10:58:53;;;;;;;0.85;0.75;;;33.40;63.30;;;;;;5055305;28;20360;-79
2022/08/30 11:01:25;;;;;;;0.85;0.60;;;33.80;64.60;;;;;;5040338;28;20059;-79
2022/08/30 11:04:19;;;;;;;0.73;0.55;;;33.90;65.00;;;;;;5038402;28;20040;-79
2022/08/30 11:06:51;;;;;;;0.82;0.60;;;34.70;64.60;;;;;;5038414;28;20044;-79
2022/08/30 11:10:00;;;;;;;2.10;0.70;;;35.10;61.70;;;;;;5040075;28;20036;-79
2022/08/30 11:12:54;;;;;;;1.58;0.80;;;35.00;63.60;;;;;;5039168;28;20155;-79
2022/08/30 11:15:29;;;;;;;1.17;0.60;;;35.10;61.50;;;;;;5054784;28;20044;-79
2022/08/30 11:18:02;;;;;;;1.25;0.73;;;35.10;63.00;;;;;;5055572;28;20363;-79
2022/08/30 11:20:40;;;;;;;2.00;0.98;;;35.30;64.10;;;;;;5034554;28;20048;-79
2022/08/30 11:23:14;;;;;;;1.45;0.85;;;35.30;60.50;;;;;;5053009;28;20490;-79
2022/08/30 11:25:49;;;;;;;;;;;34.20;60.90;;;;;;5056539;28;20186;-79
2022/08/30 11:28:34;;;;;;;1.70;0.82;;;33.30;62.90;;;;;;5055863;28;19924;-79
2022/08/30 11:31:10;;;;;;;1.33;0.80;;;33.20;63.90;;;;;;5054111;28;20052;-79
2022/08/30 11:33:49;;;;;;;1.92;0.70;;;33.50;61.60;;;;;;5056118;28;20072;-80
2022/08/30 11:36:39;;;;;;;1.67;0.77;;;33.40;63.90;;;;;;5038887;28;20037;-80
2022/08/30 11:39:08;;;;;;;0.90;0.68;;;33.30;63.40;;;;;;5056695;28;20106;-80
2022/08/30 11:41:39;;;;;;;1.17;0.80;;;33.60;62.40;;;;;;5051396;28;20040;-80
2022/08/30 11:44:20;;;;;;;2.05;0.82;;;33.70;63.60;;;;;;5056501;28;20132;-80
2022/08/30 11:46:48;;;;;;;1.13;0.77;;;33.20;62.00;;;;;;5056127;28;20453;-80
2022/08/30 11:49:17;;;;;;;0.80;0.60;;;33.60;63.10;;;;;;5055466;28;20083;-81
2022/08/30 11:51:52;;;;;;;2.10;0.70;;;33.30;62.20;;;;;;5071576;28;20522;-83
2022/08/30 11:54:42;;;;;;;2.25;0.70;;;32.60;61.30;;;;;;5056451;28;20439;-81
2022/08/30 11:57:40;;;;;;;2.88;1.25;;;32.60;63.30;;;;;;5056377;28;20372;-82
2022/08/30 12:00:27;;;;;;;1.95;1.00;;;32.60;62.90;;;;;;5069327;28;20032;-81
2022/08/30 12:02:57;;;;;;;1.95;0.80;;;32.70;65.10;;;;;;5054515;28;20378;-80
2022/08/30 12:05:44;;;;;;;1.52;0.77;;;33.00;63.40;;;;;;5051682;28;20483;-81
2022/08/30 12:08:19;;;;;;;1.30;0.75;;;31.60;62.00;;;;;;5052291;28;20040;-81
2022/08/30 12:10:58;;;;;;;1.23;0.80;;;31.40;64.40;;;;;;5050996;28;20463;-81
2022/08/30 12:13:36;;;;;;;2.00;0.73;;;31.60;66.00;;;;;;5050083;28;20083;-81
2022/08/30 12:16:06;;;;;;;0.98;0.55;;;31.20;65.50;;;;;;5035401;28;20039;-81
2022/08/30 12:18:41;;;;;;;1.70;0.68;;;31.40;66.50;;;;;;5046176;28;20698;-81
2022/08/30 12:21:16;;;;;;;1.77;0.90;;;31.30;66.40;;;;;;5046754;28;20602;-81
2022/08/30 12:23:48;;;;;;;1.25;0.80;;;30.30;68.40;;;;;;5053898;28;20052;-81
2022/08/30 12:26:23;;;;;;;1.65;0.75;;;30.90;68.80;;;;;;5030058;28;20097;-80
2022/08/30 12:28:50;;;;;;;1.95;0.65;;;31.20;67.80;;;;;;5050678;28;20046;-80
2022/08/30 12:31:20;;;;;;;3.05;0.73;;;30.80;66.90;;;;;;5029157;28;20086;-80
2022/08/30 12:33:52;;;;;;;1.65;0.60;;;31.10;66.80;;;;;;5048174;28;20041;-80
2022/08/30 12:36:35;;;;;;;1.15;0.63;;;30.50;66.40;;;;;;5055716;28;20093;-80
2022/08/30 12:39:24;;;;;;;0.73;0.50;;;29.90;67.30;;;;;;5055388;28;20044;-80
2022/08/30 12:41:50;;;;;;;1.92;0.73;;;30.00;68.60;;;;;;5036880;28;20052;-80
2022/08/30 12:44:27;;;;;;;1.35;0.73;;;29.10;69.00;;;;;;5039850;28;20618;-80
2022/08/30 12:46:58;;;;;;;1.38;0.70;;;29.40;69.60;;;;;;5051816;28;20071;-80
2022/08/30 12:49:26;;;;;;;3.00;0.88;;;29.70;69.50;;;;;;5046670;28;20047;-80
2022/08/30 12:51:53;;;;;;;1.10;0.50;;;29.70;69.70;;;;;;5054497;28;20465;-80
2022/08/30 12:54:23;;;;;;;1.73;0.65;;;30.00;69.20;;;;;;5039084;28;20132;-80
2022/08/30 12:57:01;;;;;;;0.90;0.73;;;30.10;69.60;;;;;;5029630;28;20076;-80
2022/08/30 12:59:47;;;;;;;1.27;0.80;;;30.20;70.40;;;;;;5032982;28;20490;-81
2022/08/30 13:02:25;;;;;;;1.00;0.50;;;30.00;68.40;;;;;;5055566;28;20438;-81
2022/08/30 13:04:52;;;;;;;2.20;0.82;;;29.60;69.00;;;;;;5033380;28;20432;-81
2022/08/30 13:07:33;;;;;;;0.70;0.52;;;29.10;70.90;;;;;;5039271;28;20046;-81
2022/08/30 13:10:03;;;;;;;1.67;1.00;;;29.30;70.90;;;;;;5052471;28;20041;-81